createdAt,value
2022-11-29T00:01:39.286Z,91.19
2022-11-29T00:04:06.394Z,91.86
2022-11-29T00:06:34.785Z,91.65
2022-11-29T00:09:08.299Z,90.88
2022-11-29T00:11:56.204Z,91.19
2022-11-29T00:14:23.283Z,91.57
2022-11-29T00:16:55.303Z,91.66
2022-11-29T00:19:24.723Z,91.62
2022-11-29T00:21:54.077Z,92.27
2022-11-29T00:24:23.690Z,92.50
2022-11-29T00:26:55.171Z,92.81
2022-11-29T00:29:21.907Z,93.03
2022-11-29T00:31:48.667Z,93.02
2022-11-29T00:34:15.720Z,93.04
2022-11-29T00:36:42.442Z,93.17
2022-11-29T00:39:12.417Z,93.41
2022-11-29T00:41:42.225Z,94.33
2022-11-29T00:44:16.791Z,94.23
2022-11-29T00:46:51.878Z,93.60
2022-11-29T00:49:18.595Z,93.89
2022-11-29T00:51:45.906Z,93.79
2022-11-29T00:54:12.757Z,93.60
2022-11-29T00:56:39.715Z,93.81
2022-11-29T00:59:08.846Z,93.55
2022-11-29T01:01:37.846Z,93.87
2022-11-29T01:04:07.184Z,93.48
2022-11-29T01:06:36.414Z,93.49
2022-11-29T01:09:03.778Z,93.68
2022-11-29T01:11:33.237Z,94.17
2022-11-29T01:14:03.150Z,94.12
2022-11-29T01:16:32.422Z,93.95
2022-11-29T01:19:01.454Z,93.62
2022-11-29T01:21:28.587Z,93.79
2022-11-29T01:23:55.624Z,93.58
2022-11-29T01:26:25.426Z,93.05
2022-11-29T01:28:54.061Z,92.89
2022-11-29T01:31:32.193Z,92.73
2022-11-29T01:34:02.223Z,92.54
2022-11-29T01:36:29.564Z,92.77
2022-11-29T01:38:59.234Z,92.44
2022-11-29T01:41:28.250Z,92.67
2022-11-29T01:43:59.929Z,93.11
2022-11-29T01:46:32.074Z,92.86
2022-11-29T01:49:20.336Z,92.25
2022-11-29T01:52:04.074Z,92.65
2022-11-29T01:54:32.461Z,92.98
2022-11-29T01:57:02.616Z,92.58
2022-11-29T01:59:32.139Z,92.67
2022-11-29T02:02:12.512Z,92.54
2022-11-29T02:04:44.162Z,93.10
2022-11-29T02:07:13.947Z,92.39
2022-11-29T02:09:40.701Z,92.30
2022-11-29T02:12:33.435Z,92.74
2022-11-29T02:15:06.956Z,92.55
2022-11-29T02:18:12.793Z,93.54
2022-11-29T02:21:07.485Z,93.20
2022-11-29T02:23:52.494Z,93.08
2022-11-29T02:26:28.173Z,92.98
2022-11-29T02:29:32.037Z,92.28
2022-11-29T02:32:20.602Z,92.49
2022-11-29T02:35:00.714Z,93.21
2022-11-29T02:37:50.948Z,92.36
2022-11-29T02:40:57.218Z,92.90
2022-11-29T02:43:42.137Z,92.57
2022-11-29T02:46:11.818Z,92.03
2022-11-29T02:48:58.052Z,92.40
2022-11-29T02:51:50.877Z,91.53
2022-11-29T02:54:29.929Z,91.93
2022-11-29T02:57:02.182Z,91.84
2022-11-29T02:59:59.670Z,92.25
2022-11-29T03:02:43.422Z,91.98
2022-11-29T03:05:09.902Z,91.90
2022-11-29T03:07:51.978Z,92.33
2022-11-29T03:10:38.159Z,92.29
2022-11-29T03:13:20.271Z,91.39
2022-11-29T03:16:23.355Z,91.71
2022-11-29T03:18:56.247Z,91.34
2022-11-29T03:21:22.769Z,91.91
2022-11-29T03:24:02.162Z,92.10
2022-11-29T03:26:40.718Z,92.29
2022-11-29T03:29:16.198Z,92.88
2022-11-29T03:31:52.817Z,92.41
2022-11-29T03:34:52.993Z,92.08
2022-11-29T03:37:57.786Z,92.53
2022-11-29T03:40:48.869Z,92.43
2022-11-29T03:43:37.223Z,93.03
2022-11-29T03:46:12.543Z,92.59
2022-11-29T03:49:01.545Z,92.67
2022-11-29T03:51:54.669Z,93.21
2022-11-29T03:54:43.218Z,92.59
2022-11-29T03:57:14.069Z,92.69
2022-11-29T04:00:10.896Z,92.11
2022-11-29T04:02:37.422Z,92.63
2022-11-29T04:05:31.011Z,91.90
2022-11-29T04:08:07.313Z,92.21
2022-11-29T04:11:12.100Z,92.96
2022-11-29T04:13:53.479Z,92.30
2022-11-29T04:16:25.302Z,91.98
2022-11-29T04:19:21.061Z,92.34
2022-11-29T04:22:14.658Z,92.46
2022-11-29T04:25:02.377Z,92.43
2022-11-29T04:27:38.711Z,92.25
2022-11-29T04:30:13.939Z,92.75
2022-11-29T04:33:17.876Z,92.87
2022-11-29T04:36:28.916Z,93.26
2022-11-29T04:39:26.580Z,93.24
2022-11-29T04:42:11.766Z,93.43
2022-11-29T04:45:19.235Z,93.37
2022-11-29T04:48:04.085Z,93.58
2022-11-29T04:50:58.162Z,93.96
2022-11-29T04:53:24.546Z,92.60
2022-11-29T04:56:28.494Z,92.95
2022-11-29T04:59:10.050Z,92.87
2022-11-29T05:02:08.644Z,92.89
2022-11-29T05:04:55.457Z,93.42
2022-11-29T05:07:31.502Z,92.96
2022-11-29T05:10:03.657Z,93.71
2022-11-29T05:12:38.749Z,93.81
2022-11-29T05:15:35.177Z,93.24
2022-11-29T05:18:42.068Z,93.88
2022-11-29T05:21:20.527Z,93.70
2022-11-29T05:24:20.109Z,93.46
2022-11-29T05:27:15.294Z,93.41
2022-11-29T05:30:11.346Z,93.58
2022-11-29T05:32:56.943Z,93.35
2022-11-29T05:35:47.866Z,93.81
2022-11-29T05:38:40.500Z,93.09
2022-11-29T05:41:31.460Z,94.20
2022-11-29T05:44:15.935Z,93.97
2022-11-29T05:46:48.244Z,94.29
2022-11-29T05:49:33.516Z,94.25
2022-11-29T05:52:20.760Z,93.90
2022-11-29T05:55:17.264Z,93.52
2022-11-29T05:57:55.397Z,93.59
2022-11-29T06:00:26.919Z,93.65
2022-11-29T06:02:59.826Z,93.81
2022-11-29T06:05:40.364Z,93.74
2022-11-29T06:08:22.719Z,93.94
2022-11-29T06:11:00.964Z,93.82
2022-11-29T06:13:47.189Z,94.11
2022-11-29T06:16:32.806Z,93.54
2022-11-29T06:19:25.408Z,93.64
2022-11-29T06:22:39.902Z,94.49
2022-11-29T06:25:18.718Z,93.76
2022-11-29T06:28:02.238Z,93.55
2022-11-29T06:31:00.710Z,93.57
2022-11-29T06:33:35.498Z,93.02
2022-11-29T06:36:20.218Z,93.51
2022-11-29T06:38:49.580Z,92.91
2022-11-29T06:41:22.970Z,93.92
2022-11-29T06:43:53.323Z,94.47
2022-11-29T06:46:29.200Z,93.87
2022-11-29T06:49:02.523Z,93.93
2022-11-29T06:51:33.381Z,94.04
2022-11-29T06:54:31.871Z,93.34
2022-11-29T06:57:35.659Z,93.79
2022-11-29T07:00:12.673Z,92.86
2022-11-29T07:02:48.419Z,92.94
2022-11-29T07:05:29.426Z,93.96
2022-11-29T07:08:03.584Z,94.00
2022-11-29T07:10:36.174Z,94.33
2022-11-29T07:13:05.533Z,92.96
2022-11-29T07:15:39.370Z,93.38
2022-11-29T07:18:10.856Z,93.97
2022-11-29T07:20:59.074Z,93.82
2022-11-29T07:23:31.306Z,94.16
2022-11-29T07:26:14.980Z,93.79
2022-11-29T07:28:47.782Z,93.54
2022-11-29T07:31:25.143Z,92.98
2022-11-29T07:34:24.167Z,92.99
2022-11-29T07:37:02.139Z,92.65
2022-11-29T07:39:43.386Z,93.96
2022-11-29T07:42:26.494Z,93.54
2022-11-29T07:45:01.722Z,93.36
2022-11-29T07:47:32.576Z,92.49
2022-11-29T07:50:07.215Z,93.45
2022-11-29T07:52:33.798Z,93.36
2022-11-29T07:55:02.607Z,93.43
2022-11-29T07:57:29.150Z,92.59
2022-11-29T07:59:57.920Z,92.98
2022-11-29T08:02:31.815Z,93.01
2022-11-29T08:04:58.640Z,92.71
2022-11-29T08:07:27.832Z,92.44
2022-11-29T08:09:54.365Z,92.97
2022-11-29T08:12:23.621Z,92.71
2022-11-29T08:14:52.508Z,92.68
2022-11-29T08:17:19.110Z,92.68
2022-11-29T08:19:45.671Z,92.11
2022-11-29T08:22:14.786Z,93.27
2022-11-29T08:24:41.388Z,92.27
2022-11-29T08:27:07.973Z,92.36
2022-11-29T08:29:34.583Z,92.32
2022-11-29T08:32:06.356Z,91.67
2022-11-29T08:34:32.925Z,91.68
2022-11-29T08:37:01.799Z,91.82
2022-11-29T08:39:28.410Z,90.88
2022-11-29T08:41:55.040Z,91.02
2022-11-29T08:44:21.867Z,91.58
2022-11-29T08:47:07.160Z,90.59
2022-11-29T08:49:33.765Z,91.25
2022-11-29T08:52:18.992Z,91.49
2022-11-29T08:54:48.144Z,91.81
2022-11-29T08:57:39.309Z,91.48
2022-11-29T09:00:01.259Z,90.65
2022-11-29T09:02:27.858Z,89.80
2022-11-29T09:04:56.582Z,90.04
2022-11-29T09:07:23.353Z,90.54
2022-11-29T09:09:54.825Z,90.04
2022-11-29T09:12:23.865Z,89.78
2022-11-29T09:14:53.012Z,89.31
2022-11-29T09:17:19.521Z,89.13
2022-11-29T09:19:49.139Z,89.65
2022-11-29T09:22:18.334Z,90.06
2022-11-29T09:24:47.680Z,89.64
2022-11-29T09:27:16.556Z,90.03
2022-11-29T09:29:43.088Z,90.31
2022-11-29T09:32:09.856Z,91.61
2022-11-29T09:34:36.891Z,89.85
2022-11-29T09:37:05.831Z,90.41
2022-11-29T09:39:34.628Z,89.55
2022-11-29T09:42:12.548Z,89.60
2022-11-29T09:44:48.372Z,89.37
2022-11-29T09:47:17.705Z,89.51
2022-11-29T09:50:08.832Z,89.79
2022-11-29T09:52:59.104Z,88.67
2022-11-29T09:55:47.748Z,88.13
2022-11-29T09:58:20.856Z,88.62
2022-11-29T10:01:05.355Z,88.55
2022-11-29T10:03:38.595Z,88.58
2022-11-29T10:06:24.433Z,88.47
2022-11-29T10:09:06.178Z,89.25
2022-11-29T10:12:09.922Z,88.49
2022-11-29T10:14:46.127Z,88.75
2022-11-29T10:17:21.004Z,89.89
2022-11-29T10:19:52.992Z,88.91
2022-11-29T10:22:38.295Z,88.28
2022-11-29T10:25:10.418Z,88.15
2022-11-29T10:27:40.311Z,88.12
2022-11-29T10:30:16.015Z,88.40
2022-11-29T10:32:48.533Z,88.63
2022-11-29T10:35:19.443Z,88.59
2022-11-29T10:38:22.698Z,88.29
2022-11-29T10:40:41.893Z,88.69
2022-11-29T10:43:09.100Z,87.88
2022-11-29T10:45:40.502Z,87.81
2022-11-29T10:48:11.953Z,87.42
2022-11-29T10:50:42.777Z,87.60
2022-11-29T10:53:31.543Z,87.79
2022-11-29T10:56:19.064Z,87.94
2022-11-29T10:59:03.230Z,88.20
2022-11-29T11:01:37.459Z,88.31
2022-11-29T11:04:10.911Z,88.71
2022-11-29T11:06:55.779Z,88.64
2022-11-29T11:09:42.520Z,88.76
2022-11-29T11:12:15.031Z,88.68
2022-11-29T11:14:45.751Z,88.15
2022-11-29T11:17:32.869Z,87.61
2022-11-29T11:20:08.465Z,87.46
2022-11-29T11:22:39.299Z,87.40
2022-11-29T11:25:27.792Z,87.12
2022-11-29T11:27:54.518Z,87.02
2022-11-29T11:30:27.567Z,87.12
2022-11-29T11:33:24.473Z,86.88
2022-11-29T11:36:09.854Z,87.62
2022-11-29T11:38:46.994Z,87.79
2022-11-29T11:41:48.725Z,88.37
2022-11-29T11:44:49.692Z,88.34
2022-11-29T11:47:18.519Z,89.31
2022-11-29T11:49:54.613Z,89.75
2022-11-29T11:52:27.708Z,87.17
2022-11-29T11:54:57.987Z,86.82
2022-11-29T11:57:28.471Z,86.74
2022-11-29T12:00:06.486Z,87.78
2022-11-29T12:02:41.076Z,85.72
2022-11-29T12:05:18.314Z,85.83
2022-11-29T12:08:08.972Z,86.84
2022-11-29T12:10:42.470Z,86.40
2022-11-29T12:13:20.876Z,86.30
2022-11-29T12:15:51.272Z,86.58
2022-11-29T12:18:38.082Z,85.94
2022-11-29T12:21:15.078Z,86.50
2022-11-29T12:24:00.329Z,85.98
2022-11-29T12:26:56.558Z,85.09
2022-11-29T12:29:27.642Z,85.87
2022-11-29T12:32:33.258Z,85.55
2022-11-29T12:35:21.098Z,86.81
2022-11-29T12:37:50.644Z,87.26
2022-11-29T12:40:33.525Z,88.54
2022-11-29T12:43:15.403Z,87.87
2022-11-29T12:45:56.007Z,86.72
2022-11-29T12:48:41.427Z,86.46
2022-11-29T12:51:26.289Z,86.15
2022-11-29T12:54:12.705Z,85.71
2022-11-29T12:56:54.389Z,85.60
2022-11-29T12:59:39.973Z,85.17
2022-11-29T13:02:21.521Z,84.99
2022-11-29T13:05:22.573Z,85.12
2022-11-29T13:08:00.501Z,85.20
2022-11-29T13:11:06.164Z,86.25
2022-11-29T13:13:44.096Z,86.26
2022-11-29T13:16:48.227Z,86.08
2022-11-29T13:19:37.824Z,86.90
2022-11-29T13:22:18.885Z,87.04
2022-11-29T13:25:01.343Z,86.58
2022-11-29T13:27:40.148Z,86.45
2022-11-29T13:30:09.503Z,86.08
2022-11-29T13:32:36.381Z,87.19
2022-11-29T13:35:30.868Z,87.07
2022-11-29T13:38:04.072Z,87.67
2022-11-29T13:40:56.659Z,86.93
2022-11-29T13:43:49.208Z,86.63
2022-11-29T13:47:02.544Z,86.29
2022-11-29T13:50:26.289Z,86.75
2022-11-29T13:53:19.286Z,87.00
2022-11-29T13:56:06.569Z,86.81
2022-11-29T13:58:37.557Z,86.10
2022-11-29T14:01:12.956Z,85.63
2022-11-29T14:04:00.715Z,85.80
2022-11-29T14:06:36.474Z,85.29
2022-11-29T14:09:20.767Z,86.24
2022-11-29T14:11:52.778Z,86.27
2022-11-29T14:14:24.624Z,87.66
2022-11-29T14:16:55.869Z,87.60
2022-11-29T14:19:34.910Z,88.11
2022-11-29T14:22:09.772Z,88.40
2022-11-29T14:24:38.713Z,86.96
2022-11-29T14:27:16.771Z,87.88
2022-11-29T14:29:58.771Z,86.48
2022-11-29T14:32:59.696Z,86.97
2022-11-29T14:35:37.718Z,86.62
2022-11-29T14:38:36.481Z,86.56
2022-11-29T14:41:14.035Z,86.55
2022-11-29T14:43:43.420Z,87.36
2022-11-29T14:46:16.270Z,88.32
2022-11-29T14:48:55.236Z,87.71
2022-11-29T14:51:24.390Z,87.81
2022-11-29T14:54:22.120Z,88.42
2022-11-29T14:56:51.122Z,88.32
2022-11-29T14:59:45.958Z,88.41
2022-11-29T15:02:21.840Z,88.82
2022-11-29T15:04:52.161Z,89.02
2022-11-29T15:07:25.520Z,89.30
2022-11-29T15:10:00.515Z,88.44
2022-11-29T15:12:38.243Z,88.39
2022-11-29T15:15:21.730Z,89.27
2022-11-29T15:17:59.260Z,88.44
2022-11-29T15:20:55.640Z,88.45
2022-11-29T15:23:22.192Z,88.14
2022-11-29T15:25:51.676Z,88.40
2022-11-29T15:28:25.175Z,89.41
2022-11-29T15:31:09.310Z,90.47
2022-11-29T15:33:41.193Z,89.57
2022-11-29T15:36:22.153Z,89.97
2022-11-29T15:38:49.900Z,89.89
2022-11-29T15:41:34.722Z,90.15
2022-11-29T15:44:06.764Z,90.21
2022-11-29T15:46:37.589Z,89.34
2022-11-29T15:49:28.417Z,88.66
2022-11-29T15:52:05.696Z,89.34
2022-11-29T15:54:34.854Z,89.84
2022-11-29T15:57:16.758Z,90.12
2022-11-29T15:59:51.141Z,89.30
2022-11-29T16:02:19.883Z,89.13
2022-11-29T16:04:51.422Z,89.27
2022-11-29T16:07:21.957Z,89.92
2022-11-29T16:09:57.653Z,89.01
2022-11-29T16:12:24.782Z,89.08
2022-11-29T16:14:56.505Z,89.32
2022-11-29T16:17:29.733Z,89.09
2022-11-29T16:20:23.508Z,89.28
2022-11-29T16:23:16.898Z,88.79
2022-11-29T16:25:56.218Z,88.93
2022-11-29T16:28:25.470Z,90.13
2022-11-29T16:30:54.957Z,89.34
2022-11-29T16:33:24.426Z,88.83
2022-11-29T16:35:51.783Z,88.97
2022-11-29T16:38:21.935Z,88.74
2022-11-29T16:41:20.101Z,89.00
2022-11-29T16:43:54.239Z,88.71
2022-11-29T16:46:20.785Z,88.44
2022-11-29T16:48:51.591Z,88.43
2022-11-29T16:51:27.089Z,88.95
2022-11-29T16:53:57.603Z,89.82
2022-11-29T16:56:29.431Z,88.98
2022-11-29T16:59:20.710Z,88.74
2022-11-29T17:01:51.344Z,89.52
2022-11-29T17:04:23.751Z,89.14
2022-11-29T17:06:52.994Z,89.86
2022-11-29T17:09:23.502Z,89.70
2022-11-29T17:11:50.236Z,89.56
2022-11-29T17:14:19.191Z,89.32
2022-11-29T17:16:52.044Z,89.48
2022-11-29T17:19:23.821Z,88.94
2022-11-29T17:21:54.051Z,87.93
2022-11-29T17:24:24.827Z,88.42
2022-11-29T17:26:51.373Z,88.66
2022-11-29T17:29:20.755Z,88.57
2022-11-29T17:31:47.815Z,88.34
2022-11-29T17:34:17.050Z,89.74
2022-11-29T17:36:46.923Z,89.46
2022-11-29T17:39:20.009Z,88.78
2022-11-29T17:41:46.668Z,88.91
2022-11-29T17:44:18.172Z,88.92
2022-11-29T17:46:45.007Z,88.14
2022-11-29T17:49:18.682Z,88.96
2022-11-29T17:51:53.461Z,88.98
2022-11-29T17:54:21.692Z,88.53
2022-11-29T17:56:48.487Z,89.35
2022-11-29T17:59:21.141Z,89.11
2022-11-29T18:01:52.915Z,90.00
2022-11-29T18:04:22.157Z,89.60
2022-11-29T18:06:53.719Z,90.14
2022-11-29T18:09:20.297Z,90.01
2022-11-29T18:11:50.937Z,89.69
2022-11-29T18:14:23.730Z,89.60
2022-11-29T18:16:51.523Z,89.98
2022-11-29T18:19:22.596Z,90.08
2022-11-29T18:21:50.344Z,89.69
2022-11-29T18:24:17.365Z,90.71
2022-11-29T18:26:46.521Z,90.31
2022-11-29T18:29:13.451Z,91.00
2022-11-29T18:31:42.672Z,90.67
2022-11-29T18:34:11.035Z,90.39
2022-11-29T18:36:44.407Z,89.96
2022-11-29T18:39:15.737Z,89.50
2022-11-29T18:41:44.926Z,90.14
2022-11-29T18:44:14.415Z,89.71
2022-11-29T18:46:45.731Z,89.28
2022-11-29T18:49:15.402Z,88.96
2022-11-29T18:51:48.060Z,89.04
2022-11-29T18:54:18.336Z,89.33
2022-11-29T18:56:46.105Z,89.32
2022-11-29T18:59:16.801Z,89.18
2022-11-29T19:01:48.256Z,89.17
2022-11-29T19:04:19.283Z,89.21
2022-11-29T19:06:49.458Z,89.98
2022-11-29T19:09:21.785Z,90.10
2022-11-29T19:11:51.220Z,89.57
2022-11-29T19:14:21.495Z,89.61
2022-11-29T19:16:49.401Z,90.05
2022-11-29T19:19:21.360Z,90.18
2022-11-29T19:21:48.371Z,90.34
2022-11-29T19:24:17.643Z,90.38
2022-11-29T19:26:46.410Z,90.59
2022-11-29T19:29:14.204Z,90.76
2022-11-29T19:31:41.900Z,90.36
2022-11-29T19:34:11.554Z,89.93
2022-11-29T19:36:43.042Z,89.70
2022-11-29T19:39:12.223Z,89.91
2022-11-29T19:41:39.059Z,90.04
2022-11-29T19:44:07.798Z,90.19
2022-11-29T19:46:38.992Z,90.40
2022-11-29T19:49:09.889Z,90.45
2022-11-29T19:51:37.491Z,89.98
2022-11-29T19:54:07.269Z,89.92
2022-11-29T19:56:42.321Z,90.78
2022-11-29T19:59:11.378Z,90.44
2022-11-29T20:01:41.541Z,90.55
2022-11-29T20:04:10.645Z,90.33
2022-11-29T20:06:37.368Z,90.83
2022-11-29T20:09:04.128Z,90.45
2022-11-29T20:11:30.770Z,90.02
2022-11-29T20:14:02.208Z,89.52
2022-11-29T20:16:31.708Z,89.70
2022-11-29T20:19:02.110Z,89.33
2022-11-29T20:21:32.962Z,89.45
2022-11-29T20:24:05.484Z,90.12
2022-11-29T20:26:34.359Z,90.05
2022-11-29T20:29:03.763Z,90.51
2022-11-29T20:31:31.665Z,90.74
2022-11-29T20:33:58.747Z,90.56
2022-11-29T20:36:38.221Z,89.61
2022-11-29T20:39:36.931Z,89.29
2022-11-29T20:42:34.388Z,89.28
2022-11-29T20:45:02.666Z,89.89
2022-11-29T20:47:44.535Z,88.07
2022-11-29T20:50:23.119Z,86.85
2022-11-29T20:52:57.024Z,86.14
2022-11-29T20:55:23.789Z,87.23
2022-11-29T20:57:52.626Z,85.97
2022-11-29T21:00:19.871Z,85.40
2022-11-29T21:02:48.868Z,86.07
2022-11-29T21:05:16.845Z,85.69
2022-11-29T21:07:44.024Z,85.89
2022-11-29T21:10:11.126Z,87.11
2022-11-29T21:12:40.903Z,86.99
2022-11-29T21:15:11.061Z,86.46
2022-11-29T21:17:38.065Z,86.02
2022-11-29T21:20:05.743Z,86.63
2022-11-29T21:22:38.439Z,85.17
2022-11-29T21:25:40.074Z,84.45
2022-11-29T21:28:14.200Z,84.10
2022-11-29T21:30:44.124Z,83.58
2022-11-29T21:33:13.531Z,83.05
2022-11-29T21:35:40.266Z,82.78
2022-11-29T21:38:13.450Z,82.70
2022-11-29T21:40:40.157Z,83.79
2022-11-29T21:43:09.831Z,83.95
2022-11-29T21:45:39.431Z,83.42
2022-11-29T21:48:38.507Z,82.63
2022-11-29T21:51:09.233Z,83.09
2022-11-29T21:53:39.168Z,82.67
2022-11-29T21:56:10.483Z,83.19
2022-11-29T21:58:40.410Z,82.88
2022-11-29T22:01:10.486Z,82.54
2022-11-29T22:03:37.160Z,82.03
2022-11-29T22:06:09.635Z,81.93
2022-11-29T22:08:43.520Z,81.86
2022-11-29T22:11:12.606Z,81.74
2022-11-29T22:13:59.483Z,82.44
2022-11-29T22:16:26.261Z,82.28
2022-11-29T22:18:55.531Z,81.96
2022-11-29T22:21:22.438Z,81.39
2022-11-29T22:23:49.280Z,81.18
2022-11-29T22:26:16.043Z,81.58
2022-11-29T22:28:47.448Z,80.86
2022-11-29T22:31:16.488Z,81.94
2022-11-29T22:33:43.158Z,80.77
2022-11-29T22:36:14.215Z,80.71
2022-11-29T22:38:45.772Z,80.82
2022-11-29T22:41:18.678Z,80.96
2022-11-29T22:43:48.510Z,81.20
2022-11-29T22:46:23.969Z,81.17
2022-11-29T22:49:00.874Z,81.25
2022-11-29T22:51:29.021Z,81.77
2022-11-29T22:53:57.730Z,80.82
2022-11-29T22:56:27.213Z,81.00
2022-11-29T22:58:53.749Z,82.11
2022-11-29T23:01:27.669Z,81.85
2022-11-29T23:03:57.069Z,81.36
2022-11-29T23:06:28.527Z,81.10
2022-11-29T23:09:00.176Z,81.58
2022-11-29T23:11:30.574Z,80.79
2022-11-29T23:13:59.699Z,81.43
2022-11-29T23:16:29.287Z,81.16
2022-11-29T23:19:00.287Z,80.28
2022-11-29T23:21:35.965Z,80.29
2022-11-29T23:24:05.287Z,81.01
2022-11-29T23:26:40.203Z,80.12
2022-11-29T23:29:09.287Z,80.29
2022-11-29T23:31:39.214Z,79.61
2022-11-29T23:34:08.334Z,80.17
2022-11-29T23:36:37.269Z,79.64
2022-11-29T23:39:09.895Z,79.81
2022-11-29T23:41:36.896Z,79.92
2022-11-29T23:44:08.773Z,79.95
2022-11-29T23:46:40.592Z,79.25
2022-11-29T23:49:07.811Z,79.48
2022-11-29T23:51:36.433Z,79.59
2022-11-29T23:54:05.381Z,79.93
2022-11-29T23:56:36.987Z,79.12
2022-11-29T23:59:08.283Z,79.00
